• Join FlightAware (Why Join?)
  • Login
  • US Flag 
06:15PM EST


 

Airport Tracker/Info


-or-


 

Live Flight TrackerFlight Track Log ✈ DCM1130 ✈ 27-Jan-2014 ✈ KPNE - KSGR

Flight Track Log - Related Links

Times and Time Zones

All times are in EST time to prevent confusion due to time zone crossing. See the DCM1130 flight status page for this flight to view local times or setup timezone preferences in your user account.

Time Position Orientation Groundspeed Altitude Reporting Facility
EST Latitude Longitude Course Direction KTS MPH feet Rate Location/Type
06:39AM 40.0667 -75.0333 270° West 179 206 1,000  Level Philadelphia TRACON
06:40AM 40.0667 -75.1000 270° West 195 224 3,200 1,260 Climbing Philadelphia TRACON
06:42AM 40.0219 -75.2597 250° West 245 282 5,100 1,260 Climbing New York Center
06:43AM 39.9939 -75.3336 244° Southwest 245 282 7,200 2,100 Climbing New York Center
06:44AM 39.9783 -75.4111 255° West 230 265 9,400 1,680 Climbing New York Center
06:45AM 39.9750 -75.5006 267° West 236 272 10,600 2,040 Climbing New York Center
06:46AM 39.9711 -75.5950 267° West 255 293 13,500 2,640 Climbing New York Center
06:47AM 39.9711 -75.6953 270° West 275 316 15,900 2,400 Climbing New York Center
06:48AM 39.9667 -75.7978 267° West 280 322 18,300 2,040 Climbing New York Center
06:49AM 39.9397 -75.8933 250° West 285 328 20,000 1,920 Climbing New York Center
06:50AM 39.9042 -75.9883 244° Southwest 290 334 22,200 1,800 Climbing New York Center
06:51AM 39.8667 -76.0828 243° Southwest 295 339 23,700 1,500 Climbing New York Center
06:52AM 39.8247 -76.1797 241° Southwest 300 345 25,200 1,320 Climbing New York Center
06:54AM 39.7239 -76.3442 231° Southwest 319 367 27,700 1,140 Climbing Washington Center
06:55AM 39.6647 -76.4381 231° Southwest 325 374 28,600 960 Climbing Washington Center
06:56AM 39.5933 -76.5422 228° Southwest 342 394 29,700 1,020 Climbing Washington Center
06:57AM 39.5342 -76.6356 231° Southwest 348 400 30,700 900 Climbing Washington Center
06:58AM 39.4728 -76.7342 231° Southwest 348 400 31,600 900 Climbing Washington Center
06:59AM 39.4136 -76.8244 230° Southwest 348 400 32,600 900 Climbing Washington Center
07:00AM 39.3522 -76.9200 230° Southwest 348 400 33,500 900 Climbing Washington Center
07:01AM 39.2928 -77.0103 230° Southwest 343 395 34,500 900 Climbing Washington Center
07:02AM 39.2353 -77.1003 230° Southwest 343 395 35,400 720 Climbing Washington Center
07:03AM 39.1864 -77.1903 235° Southwest 336 387 36,000 300 Climbing Washington Center
07:04AM 39.1514 -77.2992 248° West 325 374 36,000  Level Washington Center
07:05AM 39.1186 -77.4108 249° West 332 382 36,000  Level Washington Center
07:06AM 39.0856 -77.5278 250° West 343 395 36,000  Level Washington Center
07:07AM 39.0439 -77.6442 245° Southwest 353 406 36,000  Level Washington Center
07:08AM 38.9775 -77.7411 229° Southwest 366 421 36,000  Level Washington Center
07:09AM 38.9094 -77.8272 225° Southwest 376 433 36,000  Level Washington Center
07:10AM 38.8303 -77.9314 226° Southwest 376 433 36,000  Level Washington Center
07:11AM 38.7575 -78.0250 225° Southwest 371 427 36,000  Level Washington Center
07:12AM 38.6847 -78.1156 224° Southwest 371 427 36,000  Level Washington Center
07:13AM 38.6183 -78.2036 226° Southwest 371 427 36,000  Level Washington Center
07:14AM 38.5367 -78.3042 224° Southwest 371 427 36,000  Level Washington Center
07:15AM 38.4636 -78.3997 226° Southwest 371 427 36,000  Level Washington Center
07:16AM 38.3883 -78.4950 225° Southwest 371 427 36,000  Level Washington Center
07:17AM 38.3153 -78.5900 226° Southwest 371 427 36,000  Level Washington Center
07:18AM 38.2419 -78.6850 226° Southwest 371 427 36,000  Level Washington Center
07:19AM 38.1683 -78.7794 225° Southwest 371 427 36,000  Level Washington Center
07:20AM 38.0931 -78.8739 225° Southwest 371 427 36,000  Level Washington Center
07:21AM 38.0239 -78.9606 225° Southwest 371 427 36,000  Level Washington Center
07:22AM 37.9481 -79.0547 224° Southwest 376 433 36,000  Level Washington Center
07:23AM 37.8761 -79.1592 229° Southwest 381 438 36,000  Level Washington Center
07:24AM 37.8206 -79.2722 238° Southwest 386 444 36,000  Level Washington Center
07:25AM 37.7603 -79.3981 239° Southwest 386 444 36,000  Level Washington Center
07:26AM 37.7028 -79.5053 236° Southwest 381 438 36,000  Level Washington Center
07:27AM 37.6469 -79.6153 237° Southwest 381 438 36,000  Level Washington Center
07:28AM 37.5908 -79.7278 238° Southwest 381 438 36,000  Level Washington Center
07:29AM 37.5350 -79.8397 238° Southwest 381 438 36,000  Level Washington Center
07:30AM 37.4786 -79.9572 239° Southwest 388 447 36,000  Level Washington Center
07:31AM 37.4222 -80.0664 237° Southwest 388 447 36,000  Level Washington Center
07:32AM 37.3556 -80.1933 237° Southwest 373 429 36,000  Level Atlanta Center
07:33AM 37.2983 -80.3003 236° Southwest 368 423 36,000  Level Atlanta Center
07:34AM 37.2411 -80.4125 237° Southwest 379 436 36,000  Level Atlanta Center
07:35AM 37.1839 -80.5247 237° Southwest 379 436 36,000  Level Atlanta Center
07:36AM 37.1206 -80.6447 237° Southwest 379 436 36,100 240 Climbing Atlanta Center
07:37AM 37.0653 -80.7536 238° Southwest 379 436 36,500 360 Climbing Atlanta Center
07:38AM 37.0119 -80.8625 238° Southwest 379 436 36,900 360 Climbing Atlanta Center
07:39AM 36.9561 -80.9686 237° Southwest 379 436 37,300 420 Climbing Atlanta Center
07:40AM 36.9106 -81.0586 238° Southwest 368 423 37,800 300 Climbing Atlanta Center
07:41AM 36.8586 -81.1567 237° Southwest 363 418 38,000 60 Climbing Atlanta Center
07:42AM 36.8047 -81.2622 238° Southwest 357 411 38,000  Level Atlanta Center
07:43AM 36.7508 -81.3756 239° Southwest 352 405 38,000  Level Atlanta Center
07:44AM 36.6969 -81.4833 238° Southwest 352 405 38,000  Level Atlanta Center
07:45AM 36.6408 -81.5886 236° Southwest 364 419 38,000  Level Atlanta Center
07:46AM 36.5822 -81.6964 236° Southwest 376 433 38,000  Level Atlanta Center
07:47AM 36.5281 -81.8067 239° Southwest 376 433 38,000  Level Atlanta Center
07:48AM 36.4717 -81.9114 236° Southwest 376 433 38,000  Level Atlanta Center
07:49AM 36.4150 -82.0214 237° Southwest 376 433 38,000  Level Atlanta Center
07:50AM 36.3564 -82.1311 236° Southwest 376 433 38,000  Level Atlanta Center
07:51AM 36.2994 -82.2356 236° Southwest 376 433 38,000  Level Atlanta Center
07:52AM 36.2425 -82.3447 237° Southwest 376 433 38,000  Level Atlanta Center
07:53AM 36.1878 -82.4489 237° Southwest 376 433 38,000  Level Atlanta Center
07:54AM 36.1306 -82.5553 236° Southwest 376 433 38,000  Level Atlanta Center
07:55AM 36.0736 -82.6617 237° Southwest 376 433 38,000  Level Atlanta Center
07:56AM 36.0183 -82.7653 237° Southwest 376 433 38,000  Level Atlanta Center
07:57AM 35.9608 -82.8714 236° Southwest 376 433 38,000  Level Atlanta Center
07:58AM 35.9036 -82.9800 237° Southwest 381 438 38,000  Level Atlanta Center
07:59AM 35.8458 -83.0831 235° Southwest 373 429 38,000  Level Atlanta Center
08:00AM 35.7903 -83.1889 237° Southwest 380 437 38,000  Level Atlanta Center
08:01AM 35.7347 -83.2942 237° Southwest 380 437 38,000  Level Atlanta Center
08:02AM 35.6769 -83.3997 236° Southwest 375 432 38,000  Level Atlanta Center
08:03AM 35.6192 -83.5075 237° Southwest 375 432 38,000  Level Atlanta Center
08:04AM 35.5589 -83.6125 235° Southwest 375 432 38,000  Level Atlanta Center
08:05AM 35.5031 -83.7200 237° Southwest 375 432 38,000  Level Atlanta Center
08:06AM 35.4447 -83.8247 236° Southwest 380 437 38,000  Level Atlanta Center
08:07AM 35.3844 -83.9292 235° Southwest 380 437 38,000  Level Atlanta Center
08:08AM 35.3281 -84.0361 237° Southwest 380 437 38,000  Level Atlanta Center
08:09AM 35.2675 -84.1406 235° Southwest 380 437 38,000  Level Atlanta Center
08:10AM 35.2092 -84.2472 236° Southwest 380 437 38,000  Level Atlanta Center
08:11AM 35.1503 -84.3511 235° Southwest 380 437 38,000  Level Atlanta Center
08:12AM 35.0917 -84.4575 236° Southwest 380 437 38,000  Level Atlanta Center
08:13AM 35.0328 -84.5614 235° Southwest 380 437 38,000  Level Atlanta Center
08:14AM 34.9719 -84.6675 235° Southwest 380 437 38,000  Level Atlanta Center
08:15AM 34.9128 -84.7733 236° Southwest 380 437 38,000  Level Atlanta Center
08:16AM 34.8600 -84.8664 235° Southwest 380 437 38,000  Level Atlanta Center
08:17AM 34.8008 -84.9722 236° Southwest 380 437 38,000  Level Atlanta Center
08:18AM 34.7394 -85.0803 235° Southwest 380 437 38,000  Level Atlanta Center
08:19AM 34.6803 -85.1806 234° Southwest 374 430 38,000  Level Atlanta Center
08:20AM 34.6228 -85.2858 236° Southwest 379 436 38,000  Level Atlanta Center
08:21AM 34.5611 -85.3858 233° Southwest 379 436 38,000  Level Atlanta Center
08:22AM 34.5036 -85.4881 236° Southwest 379 436 38,000  Level Atlanta Center
08:23AM 34.4439 -85.5931 235° Southwest 379 436 38,000  Level Atlanta Center
08:24AM 34.3842 -85.6950 235° Southwest 379 436 38,000  Level Atlanta Center
08:25AM 34.3306 -85.7944 237° Southwest 371 427 38,000  Level Atlanta Center
08:26AM 34.2667 -85.8939 232° Southwest 371 427 38,000  Level Atlanta Center
08:27AM 34.2067 -85.9956 235° Southwest 377 434 38,000  Level Atlanta Center
08:28AM 34.1486 -86.0944 235° Southwest 377 434 38,000  Level Atlanta Center
08:29AM 34.0886 -86.1933 234° Southwest 377 434 38,000  Level Atlanta Center
08:30AM 34.0283 -86.2947 234° Southwest 377 434 38,000  Level Atlanta Center
08:31AM 33.9700 -86.3958 235° Southwest 377 434 38,000  Level Atlanta Center
08:32AM 33.9094 -86.4967 234° Southwest 377 434 38,000  Level Atlanta Center
08:33AM 33.8492 -86.5975 234° Southwest 377 434 38,000  Level Atlanta Center
08:34AM 33.7864 -86.6983 233° Southwest 377 434 38,000  Level Atlanta Center
08:35AM 33.7278 -86.7964 234° Southwest 377 434 38,000  Level Atlanta Center
08:36AM 33.6714 -86.8992 237° Southwest 377 434 38,000  Level Atlanta Center
08:38AM 33.5850 -87.1114 244° Southwest 359 413 38,000  Level Memphis Center
08:39AM 33.5419 -87.2183 244° Southwest 357 411 38,000  Level Memphis Center
08:40AM 33.4994 -87.3250 244° Southwest 355 409 38,000  Level Memphis Center
08:41AM 33.4561 -87.4311 244° Southwest 356 410 38,000  Level Memphis Center
08:42AM 33.4061 -87.5586 245° Southwest 353 406 38,000  Level Memphis Center
08:43AM 33.3628 -87.6625 243° Southwest 350 403 38,000  Level Memphis Center
08:44AM 33.3197 -87.7689 244° Southwest 353 406 38,000  Level Memphis Center
08:45AM 33.2764 -87.8744 244° Southwest 354 407 38,000  Level Memphis Center
08:46AM 33.2339 -87.9792 244° Southwest 351 404 38,000  Level Memphis Center
08:47AM 33.1903 -88.0822 243° Southwest 349 402 38,000  Level Memphis Center
08:48AM 33.1486 -88.1883 245° Southwest 352 405 38,000  Level Memphis Center
08:49AM 33.0989 -88.3044 243° Southwest 350 403 38,000  Level Memphis Center
08:51AM 33.0567 -88.4089 244° Southwest 350 403 38,000  Level Memphis Center
08:52AM 33.0133 -88.5108 243° Southwest 349 402 38,000  Level Memphis Center
08:53AM 32.9708 -88.6150 244° Southwest 350 403 38,000  Level Memphis Center
08:54AM 32.9189 -88.7383 243° Southwest 349 402 38,000  Level Memphis Center
08:55AM 32.8750 -88.8408 243° Southwest 350 403 38,000  Level Memphis Center
08:56AM 32.8322 -88.9433 244° Southwest 348 400 38,000  Level Memphis Center
08:57AM 32.7892 -89.0467 244° Southwest 349 402 38,000  Level Memphis Center
08:58AM 32.7444 -89.1500 243° Southwest 351 404 38,000  Level Memphis Center
08:59AM 32.7014 -89.2536 244° Southwest 352 405 38,000  Level Memphis Center
09:00AM 32.6567 -89.3589 243° Southwest 354 407 38,000  Level Memphis Center
09:01AM 32.6028 -89.4844 243° Southwest 355 409 38,000  Level Memphis Center
09:02AM 32.5572 -89.5886 243° Southwest 356 410 38,000  Level Memphis Center
09:03AM 32.5122 -89.6933 243° Southwest 356 410 38,000  Level Memphis Center
09:04AM 32.4675 -89.7978 243° Southwest 356 410 38,000  Level Memphis Center
09:05AM 32.4228 -89.9031 243° Southwest 357 411 38,000  Level Memphis Center
09:06AM 32.3775 -90.0069 243° Southwest 357 411 38,000  Level Memphis Center
09:07AM 32.3314 -90.1117 242° Southwest 359 413 38,000  Level Memphis Center
09:08AM 32.2767 -90.2375 243° Southwest 359 413 38,000  Level Memphis Center
09:09AM 32.2317 -90.3419 243° Southwest 359 413 38,000  Level Memphis Center
09:10AM 32.1844 -90.4461 242° Southwest 360 414 38,000  Level Memphis Center
09:11AM 32.1389 -90.5522 243° Southwest 362 417 38,000  Level Memphis Center
09:12AM 32.1128 -90.6108 242° Southwest 360 414 38,000  Level Houston Center
09:13AM 32.0664 -90.7150 242° Southwest 360 414 38,000  Level Houston Center
09:14AM 32.0111 -90.8378 242° Southwest 361 415 38,000  Level Houston Center
09:15AM 31.9714 -90.9286 243° Southwest 361 415 38,000  Level Houston Center
09:16AM 31.9253 -91.0333 243° Southwest 360 414 38,000  Level Houston Center
09:17AM 31.8703 -91.1578 243° Southwest 360 414 38,000  Level Houston Center
09:18AM 31.8225 -91.2608 241° Southwest 360 414 38,000  Level Houston Center
09:19AM 31.7769 -91.3631 242° Southwest 357 411 38,000  Level Houston Center
09:20AM 31.7303 -91.4653 242° Southwest 356 410 38,000  Level Houston Center
09:21AM 31.6847 -91.5678 242° Southwest 356 410 38,000  Level Houston Center
09:22AM 31.6381 -91.6697 242° Southwest 356 410 38,000  Level Houston Center
09:23AM 31.5819 -91.7922 242° Southwest 356 410 38,000  Level Houston Center
09:24AM 31.5361 -91.8950 242° Southwest 356 410 38,000  Level Houston Center
09:25AM 31.4842 -92.0072 242° Southwest 356 410 38,000  Level Houston Center
09:26AM 31.4406 -92.1003 241° Southwest 357 411 38,000  Level Houston Center
09:27AM 31.3928 -92.2008 241° Southwest 357 411 38,000  Level Houston Center
09:28AM 31.3467 -92.3036 242° Southwest 357 411 38,000  Level Houston Center
09:29AM 31.2903 -92.4253 242° Southwest 356 410 38,000  Level Houston Center
09:30AM 31.2442 -92.5281 242° Southwest 356 410 38,000  Level Houston Center
09:31AM 31.2081 -92.6339 248° West 356 410 38,000  Level Houston Center
09:32AM 31.1700 -92.7378 247° West 354 407 38,000  Level Houston Center
09:33AM 31.1317 -92.8428 247° West 354 407 38,000 -360 Level Houston Center
09:34AM 31.0914 -92.9481 246° West 354 407 37,300 -1,200 Descending Houston Center
09:35AM 31.0519 -93.0553 247° West 357 411 35,600 -2,040 Descending Houston Center
09:36AM 31.0028 -93.1858 246° West 367 422 33,200 -1,920 Descending Houston Center
09:37AM 30.9611 -93.2981 247° West 375 432 31,700 -1,440 Descending Houston Center
09:39AM 30.9175 -93.4144 246° West 389 448 30,300 -1,440 Descending Houston Center
09:40AM 30.8728 -93.5331 246° West 398 458 28,800 -1,500 Descending Houston Center
09:41AM 30.8272 -93.6528 246° West 404 465 27,300 -1,560 Descending Houston Center
09:42AM 30.7725 -93.7978 246° West 409 471 25,600 -1,560 Descending Houston Center
09:43AM 30.7272 -93.9150 246° West 407 468 24,200 -1,380 Descending Houston Center
09:44AM 30.6836 -94.0300 246° West 396 456 22,800 -1,380 Descending Houston Center
09:45AM 30.6422 -94.1397 246° West 380 437 21,400 -1,260 Descending Houston Center
09:46AM 30.6000 -94.2492 246° West 377 434 20,200 -1,260 Descending Houston Center
09:47AM 30.5581 -94.3572 246° West 371 427 18,900 -1,500 Descending Houston Center
09:47AM 30.5375 -94.4144 247° West 367 422 18,200 -1,260 Descending Houston Center
09:48AM 30.5167 -94.4636 244° Southwest 369 425 17,600 -1,320 Descending Houston Center
09:48AM 30.4931 -94.5197 244° Southwest 363 418 16,900 -1,560 Descending Houston Center
09:49AM 30.4514 -94.5878 235° Southwest 364 419 16,000 -1,320 Descending Houston Center
09:49AM 30.4383 -94.6069 232° Southwest 363 418 15,700 -1,320 Descending Houston Center
09:50AM 30.3908 -94.6806 233° Southwest 363 418 14,700 -1,320 Descending Houston Center
09:50AM 30.3744 -94.7050 232° Southwest 361 415 14,400 -1,200 Descending Houston Center
09:51AM 30.3344 -94.7683 234° Southwest 336 387 13,500 -1,200 Descending Houston Center
09:51AM 30.3194 -94.7894 231° Southwest 302 348 13,200 -1,080 Descending Houston Center
09:52AM 30.2783 -94.8528 233° Southwest 312 359 12,400 -1,380 Descending Houston Center
09:52AM 30.2681 -94.8686 233° Southwest 309 356 11,800 -1,800 Descending Houston Center
09:53AM 30.2300 -94.9283 234° Southwest 314 361 10,600 -1,380 Descending Houston Center
09:53AM 30.2097 -94.9606 234° Southwest 318 366 10,300 -540 Descending Houston Center
09:54AM 30.1639 -95.0314 233° Southwest 313 360 10,000 -180 Descending Houston Center
09:55AM 30.1119 -95.0783 218° Southwest 321 369 10,000  Level Houston Center
09:55AM 30.0775 -95.0953 203° Southwest 318 366 10,000  Level Houston Center
09:56AM 30.0122 -95.1222 200° South 317 365 10,000  Level Houston Center
09:56AM 29.9947 -95.1322 206° Southwest 323 372 10,000  Level Houston Center
09:57AM 29.9275 -95.1606 200° South 322 371 10,000  Level Houston Center
09:57AM 29.9078 -95.1692 201° Southwest 325 374 10,000 -240 Level Houston Center
09:58AM 29.8517 -95.1911 199° South 322 371 9,800 -600 Descending Houston Center
09:58AM 29.8272 -95.2056 207° Southwest 280 322 9,400 -1,800 Descending Houston Center
09:59AM 29.7894 -95.2400 218° Southwest 283 326 8,000 -1,980 Descending Houston Center
09:59AM 29.7733 -95.2581 224° Southwest 273 314 7,600 -1,980 Descending Houston Center
10:00AM 29.7214 -95.3083 220° Southwest 273 314 6,000 -1,620 Descending Houston Center
10:00AM 29.7175 -95.3128 225° Southwest 271 312 6,000  Level Houston Center
10:01AM 29.6675 -95.3667 223° Southwest 271 312 6,000  Level Houston Center
10:01AM 29.6639 -95.3697 216° Southwest 264 304 6,000 -900 Level Houston Center
10:02AM 29.6122 -95.4250 223° Southwest 270 311 5,100 -1,080 Descending Houston Center
10:02AM 29.6008 -95.4375 224° Southwest 260 299 4,800 -1,200 Descending Houston Center
10:03AM 29.5589 -95.4781 220° Southwest 265 305 3,900 -1,020 Descending Houston Center
10:03AM 29.5508 -95.4892 230° Southwest 226 260 3,800 -900 Descending Houston Center
10:04AM 29.5211 -95.5306 230° Southwest 244 281 3,000 -840 Descending Houston Center
10:04AM 29.5203 -95.5456 266° West 212 244 3,000 -540 Level Houston Center
10:05AM 29.5167 -95.5925 265° West 213 245 2,500 -600 Descending Houston Center
10:05AM 29.5197 -95.6103 281° West 189 217 2,400 -600 Descending Houston Center
10:06AM 29.5267 -95.6550 280° West 197 227 1,900 -900 Descending Houston Center
10:06AM 29.5464 -95.6506 11° North 149 171 1,500 -1,020 Descending Houston Center
10:07AM 29.5825 -95.6533 356° North 137 158 800 -720 Descending Houston Center
10:09AM 29.6222 -95.6565 356° North  Level Estimated